createdAt,value
2023-02-18T00:00:18.258Z,10.20
2023-02-18T00:02:45.813Z,10.30
2023-02-18T00:05:13.399Z,10.20
2023-02-18T00:07:41.305Z,10.30
2023-02-18T00:10:12.020Z,10.30
2023-02-18T00:12:39.105Z,10.30
2023-02-18T00:15:06.689Z,10.20
2023-02-18T00:17:33.819Z,10.20
2023-02-18T00:20:00.549Z,10.20
2023-02-18T00:22:27.351Z,10.20
2023-02-18T00:24:54.037Z,10.20
2023-02-18T00:27:20.825Z,10.30
2023-02-18T00:29:47.579Z,10.20
2023-02-18T00:32:14.391Z,10.30
2023-02-18T00:34:41.184Z,10.20
2023-02-18T00:37:07.952Z,10.30
2023-02-18T00:39:34.661Z,10.20
2023-02-18T00:42:01.412Z,10.20
2023-02-18T00:44:28.187Z,10.20
2023-02-18T00:46:54.848Z,10.20
2023-02-18T00:49:21.557Z,10.20
2023-02-18T00:51:48.272Z,10.20
2023-02-18T00:54:14.988Z,10.20
2023-02-18T00:56:41.706Z,10.20
2023-02-18T00:59:08.489Z,10.20
2023-02-18T01:01:35.430Z,10.10
2023-02-18T01:04:02.294Z,10.20
2023-02-18T01:06:29.115Z,10.10
2023-02-18T01:08:56.130Z,10.20
2023-02-18T01:11:22.919Z,10.20
2023-02-18T01:13:49.661Z,10.30
2023-02-18T01:16:17.140Z,10.20
2023-02-18T01:18:44.033Z,10.30
2023-02-18T01:21:11.046Z,10.30
2023-02-18T01:23:39.113Z,10.30
2023-02-18T01:26:06.594Z,10.30
2023-02-18T01:28:34.241Z,10.20
2023-02-18T01:31:07.188Z,10.20
2023-02-18T01:33:34.000Z,10.20
2023-02-18T01:36:00.839Z,10.30
2023-02-18T01:38:27.560Z,10.30
2023-02-18T01:40:54.950Z,10.30
2023-02-18T01:43:22.823Z,10.20
2023-02-18T01:45:52.584Z,10.20
2023-02-18T01:48:42.015Z,10.20
2023-02-18T01:51:11.969Z,10.20
2023-02-18T01:54:00.785Z,10.20
2023-02-18T01:56:47.094Z,10.20
2023-02-18T01:59:23.620Z,10.40
2023-02-18T02:01:50.698Z,10.30
2023-02-18T02:04:17.940Z,10.30
2023-02-18T02:06:44.795Z,10.30
2023-02-18T02:09:14.621Z,10.30
2023-02-18T02:12:20.005Z,10.20
2023-02-18T02:14:52.936Z,10.30
2023-02-18T02:17:49.546Z,10.30
2023-02-18T02:20:41.325Z,10.20
2023-02-18T02:23:22.929Z,10.20
2023-02-18T02:26:10.329Z,10.20
2023-02-18T02:29:01.897Z,10.20
2023-02-18T02:31:49.759Z,10.20
2023-02-18T02:34:37.900Z,10.20
2023-02-18T02:37:17.139Z,10.20
2023-02-18T02:39:57.895Z,10.30
2023-02-18T02:42:46.524Z,10.30
2023-02-18T02:45:41.036Z,10.30
2023-02-18T02:48:26.530Z,10.20
2023-02-18T02:51:09.315Z,10.30
2023-02-18T02:53:37.643Z,10.30
2023-02-18T02:56:04.563Z,10.20
2023-02-18T02:58:31.833Z,10.20
2023-02-18T03:01:12.030Z,10.30
2023-02-18T03:03:44.955Z,10.20
2023-02-18T03:06:25.904Z,10.20
2023-02-18T03:09:21.845Z,10.20
2023-02-18T03:12:27.312Z,10.20
2023-02-18T03:15:26.665Z,10.20
2023-02-18T03:18:05.186Z,10.20
2023-02-18T03:20:36.663Z,10.20
2023-02-18T03:23:07.183Z,10.20
2023-02-18T03:25:36.305Z,10.20
2023-02-18T03:28:08.566Z,10.20
2023-02-18T03:30:50.842Z,10.20
2023-02-18T03:33:24.827Z,10.10
2023-02-18T03:35:54.300Z,10.20
2023-02-18T03:38:26.067Z,10.20
2023-02-18T03:40:52.862Z,10.20
2023-02-18T03:43:19.651Z,10.20
2023-02-18T03:45:46.564Z,10.20
2023-02-18T03:48:13.484Z,10.20
2023-02-18T03:50:40.221Z,10.20
2023-02-18T03:53:06.914Z,10.20
2023-02-18T03:55:33.670Z,10.20
2023-02-18T03:58:00.421Z,10.20
2023-02-18T04:00:27.144Z,10.10
2023-02-18T04:02:53.846Z,10.20
2023-02-18T04:05:20.612Z,10.20
2023-02-18T04:07:47.345Z,10.20
2023-02-18T04:10:14.143Z,10.30
2023-02-18T04:12:41.009Z,10.30
2023-02-18T04:15:08.105Z,10.20
2023-02-18T04:17:35.345Z,10.20
2023-02-18T04:20:02.172Z,10.10
2023-02-18T04:22:28.953Z,10.20
2023-02-18T04:24:55.668Z,10.20
2023-02-18T04:27:22.677Z,10.20
2023-02-18T04:29:49.675Z,10.20
2023-02-18T04:32:16.520Z,10.20
2023-02-18T04:34:43.324Z,10.30
2023-02-18T04:37:10.072Z,10.20
2023-02-18T04:39:36.919Z,10.20
2023-02-18T04:42:08.872Z,10.20
2023-02-18T04:44:37.071Z,10.20
2023-02-18T04:47:05.423Z,10.20
2023-02-18T04:49:32.236Z,10.20
2023-02-18T04:51:59.041Z,10.20
2023-02-18T04:54:25.917Z,10.10
2023-02-18T04:56:52.662Z,10.10
2023-02-18T04:59:19.432Z,10.20
2023-02-18T05:01:46.268Z,10.20
2023-02-18T05:04:13.069Z,10.20
2023-02-18T05:06:39.985Z,10.30
2023-02-18T05:09:07.077Z,10.30
2023-02-18T05:11:33.837Z,10.20
2023-02-18T05:14:00.525Z,10.20
2023-02-18T05:16:27.448Z,10.10
2023-02-18T05:18:54.238Z,10.20
2023-02-18T05:21:21.018Z,10.10
2023-02-18T05:23:47.751Z,10.10
2023-02-18T05:26:14.523Z,10.10
2023-02-18T05:28:41.267Z,10.10
2023-02-18T05:31:08.215Z,10.10
2023-02-18T05:33:34.997Z,10.00
2023-02-18T05:36:01.680Z,10.10
2023-02-18T05:38:28.512Z,10.10
2023-02-18T05:40:56.220Z,10.10
2023-02-18T05:43:22.967Z,10.10
2023-02-18T05:45:49.657Z,10.00
2023-02-18T05:48:16.426Z,10.00
2023-02-18T05:50:43.136Z,10.00
2023-02-18T05:53:09.951Z,10.00
2023-02-18T05:55:39.109Z,10.00
2023-02-18T05:58:06.496Z,9.90
2023-02-18T06:00:33.320Z,9.90
2023-02-18T06:03:00.261Z,9.90
2023-02-18T06:05:27.113Z,9.80
2023-02-18T06:07:56.350Z,9.70
2023-02-18T06:10:23.389Z,9.70
2023-02-18T06:12:50.383Z,9.70
2023-02-18T06:15:17.250Z,9.70
2023-02-18T06:17:44.015Z,9.80
2023-02-18T06:20:11.379Z,9.70
2023-02-18T06:22:38.111Z,9.70
2023-02-18T06:25:05.115Z,9.70
2023-02-18T06:27:31.801Z,9.70
2023-02-18T06:29:58.580Z,9.70
2023-02-18T06:32:25.455Z,9.70
2023-02-18T06:34:52.215Z,9.70
2023-02-18T06:37:19.075Z,9.70
2023-02-18T06:39:45.825Z,9.70
2023-02-18T06:42:12.532Z,9.70
2023-02-18T06:44:39.282Z,9.70
2023-02-18T06:47:06.171Z,9.70
2023-02-18T06:49:33.237Z,9.70
2023-02-18T06:51:59.991Z,9.70
2023-02-18T06:54:26.725Z,9.70
2023-02-18T06:56:53.854Z,9.80
2023-02-18T06:59:20.523Z,9.80
2023-02-18T07:01:47.284Z,9.90
2023-02-18T07:04:14.038Z,9.90
2023-02-18T07:06:40.826Z,9.90
2023-02-18T07:09:07.832Z,9.90
2023-02-18T07:11:34.594Z,9.90
2023-02-18T07:14:01.471Z,9.90
2023-02-18T07:16:28.274Z,9.90
2023-02-18T07:18:55.036Z,10.00
2023-02-18T07:21:21.983Z,10.00
2023-02-18T07:23:48.748Z,10.00
2023-02-18T07:26:15.609Z,10.00
2023-02-18T07:28:42.957Z,10.00
2023-02-18T07:31:09.941Z,10.00
2023-02-18T07:33:36.848Z,10.10
2023-02-18T07:36:04.310Z,10.10
2023-02-18T07:38:31.100Z,10.20
2023-02-18T07:40:58.869Z,10.20
2023-02-18T07:43:25.653Z,10.20
2023-02-18T07:45:52.540Z,10.20
2023-02-18T07:48:19.330Z,10.30
2023-02-18T07:50:46.710Z,10.30
2023-02-18T07:53:15.857Z,10.30
2023-02-18T07:55:52.114Z,10.30
2023-02-18T07:58:20.285Z,10.40
2023-02-18T08:00:49.434Z,10.40
2023-02-18T08:03:18.037Z,10.50
2023-02-18T08:05:45.286Z,10.50
2023-02-18T08:08:20.350Z,10.40
2023-02-18T08:10:48.069Z,10.40
2023-02-18T08:13:15.152Z,10.50
2023-02-18T08:15:42.347Z,10.40
2023-02-18T08:18:14.614Z,10.50
2023-02-18T08:20:41.374Z,10.50
2023-02-18T08:23:08.147Z,10.50
2023-02-18T08:25:34.848Z,10.50
2023-02-18T08:28:01.583Z,10.50
2023-02-18T08:30:28.640Z,10.50
2023-02-18T08:32:55.524Z,10.50
2023-02-18T08:35:22.327Z,10.60
2023-02-18T08:37:53.448Z,10.60
2023-02-18T08:40:21.490Z,10.60
2023-02-18T08:42:48.387Z,10.60
2023-02-18T08:45:15.192Z,10.60
2023-02-18T08:48:17.598Z,10.70
2023-02-18T08:50:28.712Z,10.70
2023-02-18T08:52:56.305Z,10.70
2023-02-18T08:55:24.134Z,10.70
2023-02-18T08:57:50.963Z,10.80
2023-02-18T09:00:18.950Z,10.80
2023-02-18T09:02:47.440Z,10.90
2023-02-18T09:05:15.542Z,10.90
2023-02-18T09:07:42.366Z,11.00
2023-02-18T09:10:10.541Z,11.10
2023-02-18T09:12:37.426Z,11.20
2023-02-18T09:15:04.921Z,11.20
2023-02-18T09:17:31.711Z,11.30
2023-02-18T09:19:58.782Z,11.20
2023-02-18T09:22:25.508Z,11.20
2023-02-18T09:24:52.232Z,11.20
2023-02-18T09:27:19.009Z,11.20
2023-02-18T09:29:46.598Z,11.20
2023-02-18T09:32:19.987Z,11.20
2023-02-18T09:34:52.302Z,11.20
2023-02-18T09:37:19.106Z,11.20
2023-02-18T09:39:46.146Z,11.20
2023-02-18T09:42:17.599Z,11.20
2023-02-18T09:44:56.548Z,11.20
2023-02-18T09:47:37.762Z,11.10
2023-02-18T09:50:13.833Z,11.20
2023-02-18T09:52:40.672Z,11.10
2023-02-18T09:55:30.071Z,11.10
2023-02-18T09:58:04.589Z,11.20
2023-02-18T10:00:39.254Z,11.20
2023-02-18T10:03:24.592Z,11.30
2023-02-18T10:06:10.426Z,11.40
2023-02-18T10:08:43.190Z,11.40
2023-02-18T10:11:16.691Z,11.50
2023-02-18T10:13:44.807Z,11.50
2023-02-18T10:16:17.704Z,11.60
2023-02-18T10:18:49.811Z,11.60
2023-02-18T10:21:37.005Z,11.60
2023-02-18T10:24:31.526Z,11.70
2023-02-18T10:26:59.713Z,11.70
2023-02-18T10:29:27.650Z,11.60
2023-02-18T10:32:05.969Z,11.60
2023-02-18T10:34:52.028Z,11.60
2023-02-18T10:38:04.500Z,11.60
2023-02-18T10:41:03.310Z,11.50
2023-02-18T10:43:35.810Z,11.60
2023-02-18T10:46:16.030Z,11.50
2023-02-18T10:48:51.671Z,11.50
2023-02-18T10:51:25.996Z,11.50
2023-02-18T10:53:54.384Z,11.50
2023-02-18T10:56:48.681Z,11.50
2023-02-18T10:59:22.597Z,11.60
2023-02-18T11:02:05.686Z,11.60
2023-02-18T11:04:39.719Z,11.60
2023-02-18T11:07:14.285Z,11.50
2023-02-18T11:09:54.448Z,11.50
2023-02-18T11:12:25.588Z,11.50
2023-02-18T11:15:08.018Z,11.40
2023-02-18T11:17:37.832Z,11.50
2023-02-18T11:20:32.295Z,11.50
2023-02-18T11:23:08.040Z,11.50
2023-02-18T11:25:37.781Z,11.60
2023-02-18T11:28:23.504Z,11.60
2023-02-18T11:30:56.113Z,11.50
2023-02-18T11:33:29.137Z,11.60
2023-02-18T11:35:58.040Z,11.70
2023-02-18T11:38:37.441Z,11.80
2023-02-18T11:41:10.725Z,11.90
2023-02-18T11:43:42.641Z,12.00
2023-02-18T11:46:18.220Z,12.20
2023-02-18T11:48:46.125Z,12.30
2023-02-18T11:51:18.667Z,12.50
2023-02-18T11:54:06.524Z,12.60
2023-02-18T11:56:36.121Z,12.70
2023-02-18T11:59:04.233Z,12.60
2023-02-18T12:01:47.556Z,12.90
2023-02-18T12:04:16.544Z,12.70
2023-02-18T12:07:08.684Z,12.70
2023-02-18T12:09:40.288Z,12.70
2023-02-18T12:12:16.007Z,12.50
2023-02-18T12:14:43.563Z,12.40
2023-02-18T12:17:43.535Z,12.50
2023-02-18T12:20:26.903Z,12.50
2023-02-18T12:23:28.834Z,12.50
2023-02-18T12:26:29.588Z,12.50
2023-02-18T12:29:22.699Z,12.20
2023-02-18T12:32:13.424Z,12.10
2023-02-18T12:35:00.454Z,12.10
2023-02-18T12:37:32.955Z,12.00
2023-02-18T12:39:59.676Z,11.90
2023-02-18T12:42:40.766Z,11.90
2023-02-18T12:45:19.288Z,11.90
2023-02-18T12:48:25.895Z,11.80
2023-02-18T12:51:13.236Z,11.90
2023-02-18T12:53:39.928Z,11.90
2023-02-18T12:56:25.291Z,11.90
2023-02-18T12:59:09.868Z,11.90
2023-02-18T13:02:14.324Z,11.90
2023-02-18T13:04:50.629Z,11.80
2023-02-18T13:07:53.415Z,11.80
2023-02-18T13:10:50.745Z,11.90
2023-02-18T13:13:45.252Z,11.90
2023-02-18T13:16:16.199Z,11.90
2023-02-18T13:18:50.406Z,12.00
2023-02-18T13:21:17.328Z,12.00
2023-02-18T13:24:10.031Z,11.90
2023-02-18T13:26:37.631Z,12.00
2023-02-18T13:29:09.962Z,12.00
2023-02-18T13:31:57.846Z,11.90
2023-02-18T13:34:33.719Z,11.90
2023-02-18T13:37:03.445Z,11.80
2023-02-18T13:39:31.333Z,11.80
2023-02-18T13:42:23.964Z,11.90
2023-02-18T13:44:56.897Z,11.80
2023-02-18T13:47:45.086Z,11.70
2023-02-18T13:50:29.133Z,11.80
2023-02-18T13:53:07.640Z,11.80
2023-02-18T13:55:45.959Z,11.90
2023-02-18T13:58:19.950Z,12.00
2023-02-18T14:01:02.184Z,12.10
2023-02-18T14:03:38.492Z,12.10
2023-02-18T14:06:15.786Z,12.30
2023-02-18T14:08:43.936Z,12.40
2023-02-18T14:11:13.832Z,12.40
2023-02-18T14:13:55.614Z,12.40
2023-02-18T14:16:22.780Z,12.30
2023-02-18T14:19:00.940Z,12.40
2023-02-18T14:21:39.535Z,12.50
2023-02-18T14:24:09.861Z,12.50
2023-02-18T14:26:45.691Z,12.50
2023-02-18T14:29:30.082Z,12.70
2023-02-18T14:32:04.142Z,13.00
2023-02-18T14:34:42.983Z,13.00
2023-02-18T14:37:18.610Z,12.70
2023-02-18T14:40:08.721Z,12.60
2023-02-18T14:43:07.356Z,12.50
2023-02-18T14:45:57.201Z,12.40
2023-02-18T14:49:01.283Z,12.30
2023-02-18T14:51:31.475Z,12.30
2023-02-18T14:54:05.101Z,12.30
2023-02-18T14:56:33.247Z,12.30
2023-02-18T14:59:02.696Z,12.30
2023-02-18T15:01:32.888Z,12.30
2023-02-18T15:04:01.679Z,12.20
2023-02-18T15:06:28.391Z,12.30
2023-02-18T15:08:55.226Z,12.20
2023-02-18T15:11:35.603Z,12.30
2023-02-18T15:14:05.178Z,12.30
2023-02-18T15:16:34.034Z,12.30
2023-02-18T15:19:04.488Z,12.30
2023-02-18T15:21:35.488Z,12.30
2023-02-18T15:24:31.119Z,12.40
2023-02-18T15:27:05.592Z,12.30
2023-02-18T15:29:35.291Z,12.40
2023-02-18T15:32:21.265Z,12.30
2023-02-18T15:35:15.345Z,12.30
2023-02-18T15:37:46.063Z,12.30
2023-02-18T15:40:16.750Z,12.30
2023-02-18T15:42:47.462Z,12.20
2023-02-18T15:45:24.481Z,12.20
2023-02-18T15:47:57.186Z,12.10
2023-02-18T15:50:34.162Z,12.00
2023-02-18T15:53:07.270Z,11.90
2023-02-18T15:55:41.873Z,11.90
2023-02-18T15:58:14.548Z,11.90
2023-02-18T16:00:48.644Z,11.90
2023-02-18T16:03:27.428Z,11.90
2023-02-18T16:06:37.329Z,11.80
2023-02-18T16:09:14.981Z,11.80
2023-02-18T16:11:45.244Z,11.70
2023-02-18T16:14:32.774Z,11.70
2023-02-18T16:17:21.820Z,11.60
2023-02-18T16:20:03.919Z,11.50
2023-02-18T16:22:31.341Z,11.50
2023-02-18T16:25:17.110Z,11.50
2023-02-18T16:28:03.343Z,11.40
2023-02-18T16:30:33.163Z,11.40
2023-02-18T16:33:00.674Z,11.40
2023-02-18T16:35:32.742Z,11.40
2023-02-18T16:38:05.217Z,11.30
2023-02-18T16:40:38.173Z,11.30
2023-02-18T16:43:20.114Z,11.20
2023-02-18T16:45:52.730Z,11.30
2023-02-18T16:48:30.752Z,11.20
2023-02-18T16:51:00.503Z,11.30
2023-02-18T16:53:27.321Z,11.20
2023-02-18T16:55:54.149Z,11.20
2023-02-18T16:58:21.060Z,11.20
2023-02-18T17:00:50.958Z,11.20
2023-02-18T17:03:18.389Z,11.20
2023-02-18T17:05:45.346Z,11.10
2023-02-18T17:08:24.119Z,11.20
2023-02-18T17:10:58.659Z,11.10
2023-02-18T17:13:28.508Z,11.10
2023-02-18T17:15:56.648Z,11.10
2023-02-18T17:18:24.443Z,11.00
2023-02-18T17:20:52.993Z,11.10
2023-02-18T17:23:23.066Z,11.10
2023-02-18T17:25:51.453Z,11.00
2023-02-18T17:28:21.555Z,11.00
2023-02-18T17:30:53.018Z,10.90
2023-02-18T17:33:19.875Z,10.90
2023-02-18T17:35:46.658Z,10.90
2023-02-18T17:38:15.789Z,10.90
2023-02-18T17:40:43.369Z,10.80
2023-02-18T17:43:15.189Z,10.80
2023-02-18T17:45:57.658Z,10.90
2023-02-18T17:48:25.720Z,10.90
2023-02-18T17:50:52.960Z,10.80
2023-02-18T17:53:20.173Z,10.80
2023-02-18T17:55:47.929Z,10.70
2023-02-18T17:58:16.211Z,10.60
2023-02-18T18:00:52.263Z,10.60
2023-02-18T18:03:19.632Z,10.60
2023-02-18T18:05:49.458Z,10.60
2023-02-18T18:08:16.639Z,10.60
2023-02-18T18:10:52.925Z,10.60
2023-02-18T18:13:26.163Z,10.50
2023-02-18T18:15:53.380Z,10.40
2023-02-18T18:18:20.717Z,10.40
2023-02-18T18:20:52.650Z,10.30
2023-02-18T18:23:20.595Z,10.30
2023-02-18T18:25:51.090Z,10.20
2023-02-18T18:28:18.285Z,10.20
2023-02-18T18:30:47.383Z,10.20
2023-02-18T18:33:21.911Z,10.30
2023-02-18T18:35:51.862Z,10.30
2023-02-18T18:38:19.989Z,10.30
2023-02-18T18:40:47.676Z,10.30
2023-02-18T18:43:17.988Z,10.20
2023-02-18T18:45:45.309Z,10.20
2023-02-18T18:48:12.206Z,10.20
2023-02-18T18:50:39.887Z,10.10
2023-02-18T18:53:12.888Z,10.10
2023-02-18T18:55:40.966Z,10.00
2023-02-18T18:58:07.738Z,10.00
2023-02-18T19:00:38.081Z,9.90
2023-02-18T19:03:05.733Z,9.80
2023-02-18T19:05:35.469Z,9.80
2023-02-18T19:08:05.206Z,9.70
2023-02-18T19:10:35.555Z,9.60
2023-02-18T19:13:04.644Z,9.60
2023-02-18T19:15:31.929Z,9.50
2023-02-18T19:17:58.873Z,9.40
2023-02-18T19:20:36.031Z,9.40
2023-02-18T19:23:03.967Z,9.30
2023-02-18T19:25:31.532Z,9.30
2023-02-18T19:27:58.559Z,9.20
2023-02-18T19:30:43.580Z,9.20
2023-02-18T19:33:12.996Z,9.20
2023-02-18T19:35:40.739Z,9.20
2023-02-18T19:38:10.207Z,9.10
2023-02-18T19:40:37.987Z,9.10
2023-02-18T19:43:05.240Z,9.00
2023-02-18T19:45:32.449Z,9.00
2023-02-18T19:48:00.068Z,8.90
2023-02-18T19:50:28.843Z,8.90
2023-02-18T19:52:56.002Z,8.90
2023-02-18T19:55:23.421Z,8.90
2023-02-18T19:57:51.152Z,8.90
2023-02-18T20:00:20.131Z,8.90
2023-02-18T20:02:47.107Z,8.90
2023-02-18T20:05:14.293Z,8.90
2023-02-18T20:07:46.153Z,8.90
2023-02-18T20:10:16.052Z,8.90
2023-02-18T20:12:42.959Z,8.90
2023-02-18T20:15:10.394Z,8.90
2023-02-18T20:17:38.728Z,8.80
2023-02-18T20:20:06.506Z,8.80
2023-02-18T20:22:33.367Z,8.80
2023-02-18T20:25:00.347Z,8.70
2023-02-18T20:27:27.234Z,8.70
2023-02-18T20:29:53.999Z,8.70
2023-02-18T20:32:20.958Z,8.70
2023-02-18T20:34:47.861Z,8.70
2023-02-18T20:37:14.784Z,8.70
2023-02-18T20:39:41.770Z,8.70
2023-02-18T20:42:16.326Z,8.70
2023-02-18T20:44:44.130Z,8.70
2023-02-18T20:47:13.564Z,8.60
2023-02-18T20:49:41.031Z,8.60
2023-02-18T20:52:09.292Z,8.60
2023-02-18T20:54:36.698Z,8.50
2023-02-18T20:57:04.081Z,8.50
2023-02-18T20:59:33.250Z,8.50
2023-02-18T21:02:00.477Z,8.50
2023-02-18T21:04:27.621Z,8.50
2023-02-18T21:06:55.385Z,8.50
2023-02-18T21:09:22.379Z,8.50
2023-02-18T21:11:49.434Z,8.50
2023-02-18T21:14:16.654Z,8.50
2023-02-18T21:16:43.517Z,8.50
2023-02-18T21:19:16.422Z,8.50
2023-02-18T21:21:44.837Z,8.50
2023-02-18T21:24:12.020Z,8.50
2023-02-18T21:26:39.383Z,8.50
2023-02-18T21:29:08.159Z,8.40
2023-02-18T21:31:40.565Z,8.40
2023-02-18T21:34:10.146Z,8.40
2023-02-18T21:36:36.913Z,8.40
2023-02-18T21:39:06.856Z,8.40
2023-02-18T21:41:37.128Z,8.40
2023-02-18T21:44:04.946Z,8.40
2023-02-18T21:46:34.170Z,8.40
2023-02-18T21:49:10.217Z,8.40
2023-02-18T21:52:00.200Z,8.30
2023-02-18T21:54:32.666Z,8.30
2023-02-18T21:57:00.717Z,8.30
2023-02-18T21:59:28.673Z,8.30
2023-02-18T22:01:56.647Z,8.30
2023-02-18T22:04:23.664Z,8.30
2023-02-18T22:06:50.416Z,8.30
2023-02-18T22:09:17.199Z,8.30
2023-02-18T22:11:44.153Z,8.30
2023-02-18T22:14:12.742Z,8.30
2023-02-18T22:16:39.708Z,8.30
2023-02-18T22:19:06.611Z,8.30
2023-02-18T22:21:33.781Z,8.30
2023-02-18T22:24:00.597Z,8.30
2023-02-18T22:26:27.610Z,8.30
2023-02-18T22:28:55.801Z,8.30
2023-02-18T22:31:24.043Z,8.30
2023-02-18T22:33:53.504Z,8.30
2023-02-18T22:36:21.986Z,8.30
2023-02-18T22:38:49.342Z,8.30
2023-02-18T22:41:18.449Z,8.20
2023-02-18T22:43:45.197Z,8.30
2023-02-18T22:46:15.296Z,8.20
2023-02-18T22:48:42.636Z,8.20
2023-02-18T22:51:14.349Z,8.20
2023-02-18T22:53:42.222Z,8.20
2023-02-18T22:56:12.242Z,8.30
2023-02-18T22:58:39.397Z,8.30
2023-02-18T23:01:07.084Z,8.30
2023-02-18T23:03:35.034Z,8.20
2023-02-18T23:06:04.336Z,8.20
2023-02-18T23:08:31.855Z,8.20
2023-02-18T23:11:10.832Z,8.20
2023-02-18T23:13:38.165Z,8.20
2023-02-18T23:16:08.491Z,8.20
2023-02-18T23:18:35.926Z,8.20
2023-02-18T23:21:17.204Z,8.20
2023-02-18T23:23:50.376Z,8.20
2023-02-18T23:26:17.700Z,8.20
2023-02-18T23:28:47.846Z,8.20
2023-02-18T23:31:20.601Z,8.20
2023-02-18T23:33:49.804Z,8.20
2023-02-18T23:36:19.965Z,8.10
2023-02-18T23:38:51.486Z,8.20
2023-02-18T23:41:19.335Z,8.20
2023-02-18T23:43:46.595Z,8.20
2023-02-18T23:46:15.877Z,8.10
2023-02-18T23:48:42.735Z,8.20
2023-02-18T23:51:12.690Z,8.10
2023-02-18T23:53:39.852Z,8.10
2023-02-18T23:56:14.683Z,8.10
2023-02-18T23:58:43.065Z,8.10
